Time;durP1;ratioP1;P1;durP2;ratioP2;P2;SDS_P1;SDS_P2;PMS_P1;PMS_P2;Temp;Humidity;BMP_temperature;BMP_pressure;BME280_temperature;BME280_humidity;BME280_pressure;Samples;Min_cycle;Max_cycle;Signal;HPM_P1;HPM_P2
2022/10/29 00:00:55;;;;;;;;;;;12.10;99.90;;;;;;5063879;28;20779;-69
2022/10/29 00:03:21;;;;;;;;;;;12.10;99.90;;;;;;5066613;28;19924;-69
2022/10/29 00:06:04;;;;;;;;;;;12.10;99.90;;;;;;5065475;28;19928;-69
2022/10/29 00:08:30;;;;;;;;;;;12.00;99.90;;;;;;5054117;28;19928;-69
2022/10/29 00:11:03;;;;;;;;;;;12.10;99.90;;;;;;5056725;28;19951;-69
2022/10/29 00:13:28;;;;;;;;;;;12.00;99.90;;;;;;5068172;28;19929;-69
2022/10/29 00:15:54;;;;;;;;;;;12.10;99.90;;;;;;5061042;28;19920;-69
2022/10/29 00:18:19;;;;;;;;;;;12.00;99.90;;;;;;5064840;28;20383;-69
2022/10/29 00:20:45;;;;;;;;;;;12.00;99.90;;;;;;5063467;28;19924;-70
2022/10/29 00:23:10;;;;;;;;;;;12.00;99.90;;;;;;5059656;28;19954;-69
2022/10/29 00:25:36;;;;;;;;;;;12.00;99.90;;;;;;5060672;28;20118;-69
2022/10/29 00:28:01;;;;;;;;;;;11.90;99.90;;;;;;5061746;28;19973;-69
2022/10/29 00:30:27;;;;;;;;;;;11.90;99.90;;;;;;5094078;28;20477;-69
2022/10/29 00:32:52;;;;;;;;;;;11.90;99.90;;;;;;5065541;28;19924;-69
2022/10/29 00:35:18;;;;;;;;;;;11.90;99.90;;;;;;5071613;28;19965;-69
2022/10/29 00:37:43;;;;;;;;;;;11.80;99.90;;;;;;5071054;28;20290;-69
2022/10/29 00:40:09;;;;;;;;;;;11.90;99.90;;;;;;5064169;28;19932;-70
2022/10/29 00:42:34;;;;;;;;;;;11.90;99.90;;;;;;5049622;28;20379;-69
2022/10/29 00:45:00;;;;;;;;;;;11.80;99.90;;;;;;5074699;28;19947;-69
2022/10/29 00:47:30;;;;;;;;;;;11.90;99.90;;;;;;5068610;28;19928;-69
2022/10/29 00:50:01;;;;;;;;;;;11.80;99.90;;;;;;5060926;28;19929;-69
2022/10/29 00:52:29;;;;;;;;;;;11.80;99.90;;;;;;5060478;28;20039;-69
2022/10/29 00:54:55;;;;;;;;;;;11.70;99.90;;;;;;5068965;28;19920;-69
2022/10/29 00:57:24;;;;;;;;;;;11.70;99.90;;;;;;5070071;28;20003;-69
2022/10/29 00:59:49;;;;;;;;;;;11.60;99.90;;;;;;5073803;28;19924;-69
2022/10/29 01:02:15;;;;;;;;;;;11.50;99.90;;;;;;5069542;28;20274;-69
2022/10/29 01:04:41;;;;;;;;;;;11.50;99.90;;;;;;5067022;28;19932;-69
2022/10/29 01:07:07;;;;;;;;;;;11.40;99.90;;;;;;5070787;28;19927;-69
2022/10/29 01:09:32;;;;;;;;;;;11.10;99.90;;;;;;5069728;28;20436;-69
2022/10/29 01:12:06;;;;;;;;;;;11.00;99.90;;;;;;5074255;28;20290;-69
2022/10/29 01:14:37;;;;;;;;;;;11.00;99.90;;;;;;5072701;28;20440;-69
2022/10/29 01:17:10;;;;;;;;;;;10.90;99.90;;;;;;5070290;28;19924;-69
2022/10/29 01:19:55;;;;;;;;;;;10.90;99.90;;;;;;5051013;28;20324;-69
2022/10/29 01:22:42;;;;;;;;;;;11.00;99.90;;;;;;5062619;28;20405;-69
2022/10/29 01:25:34;;;;;;;;;;;11.00;99.90;;;;;;5072672;28;19920;-69
2022/10/29 01:28:18;;;;;;;;;;;11.00;99.90;;;;;;5064275;28;19973;-69
2022/10/29 01:31:03;;;;;;;;;;;11.00;99.90;;;;;;5105616;27;19928;-69
2022/10/29 01:33:35;;;;;;;;;;;11.00;99.90;;;;;;5049493;28;20421;-69
2022/10/29 01:36:06;;;;;;;;;;;11.00;99.90;;;;;;5060943;28;19931;-69
2022/10/29 01:38:33;;;;;;;;;;;11.00;99.90;;;;;;5067593;28;20015;-69
2022/10/29 01:40:58;;;;;;;;;;;11.00;99.90;;;;;;5053309;28;20072;-69
2022/10/29 01:43:27;;;;;;;;;;;10.90;99.90;;;;;;5066091;28;19920;-69
2022/10/29 01:46:12;;;;;;;;;;;10.90;99.90;;;;;;5102178;27;20143;-69
2022/10/29 01:48:41;;;;;;;;;;;10.90;99.90;;;;;;5064786;28;19929;-69
2022/10/29 01:51:09;;;;;;;;;;;10.90;99.90;;;;;;5066800;28;20358;-69
2022/10/29 01:53:35;;;;;;;;;;;10.90;99.90;;;;;;5052371;28;20367;-69
2022/10/29 01:56:01;;;;;;;;;;;10.90;99.90;;;;;;5070456;28;19924;-69
2022/10/29 01:58:26;;;;;;;;;;;10.90;99.90;;;;;;5066317;28;20275;-69
2022/10/29 02:00:55;;;;;;;;;;;10.90;99.90;;;;;;5068234;28;19920;-69
2022/10/29 02:03:41;;;;;;;;;;;10.90;99.90;;;;;;5068119;28;19923;-69
2022/10/29 02:06:13;;;;;;;;;;;10.90;99.90;;;;;;5068598;28;19928;-69
2022/10/29 02:08:48;;;;;;;;;;;10.90;99.90;;;;;;5084938;28;19928;-69
2022/10/29 02:11:20;;;;;;;;;;;10.90;99.90;;;;;;5062146;28;19924;-69
2022/10/29 02:14:03;;;;;;;;;;;10.90;99.90;;;;;;5067200;28;19927;-69
2022/10/29 02:16:29;;;;;;;;;;;10.90;99.90;;;;;;5067518;28;19928;-69
2022/10/29 02:18:56;;;;;;;;;;;10.90;99.90;;;;;;5066246;28;19925;-69
2022/10/29 02:21:21;;;;;;;;;;;10.80;99.90;;;;;;5064269;28;19924;-69
2022/10/29 02:23:47;;;;;;;;;;;10.80;99.90;;;;;;5064616;28;20409;-69
2022/10/29 02:26:12;;;;;;;;;;;10.80;99.90;;;;;;5104967;27;19927;-69
2022/10/29 02:28:38;;;;;;;;;;;10.70;99.90;;;;;;5095856;27;19932;-69
2022/10/29 02:31:03;;;;;;;;;;;10.60;99.90;;;;;;5065500;28;19935;-69
2022/10/29 02:33:29;;;;;;;;;;;10.60;99.90;;;;;;5062414;28;19921;-69
2022/10/29 02:35:54;;;;;;;;;;;10.70;99.90;;;;;;5070626;28;19955;-69
2022/10/29 02:38:20;;;;;;;;;;;10.60;99.90;;;;;;5063935;28;20010;-69
2022/10/29 02:40:45;;;;;;;;;;;10.70;99.90;;;;;;5097668;27;20378;-69
2022/10/29 02:43:11;;;;;;;;;;;10.70;99.90;;;;;;5054299;28;20383;-69
2022/10/29 02:45:36;;;;;;;;;;;10.70;99.90;;;;;;5099773;27;19927;-69
2022/10/29 02:48:02;;;;;;;;;;;10.70;99.90;;;;;;5064925;28;19935;-69
2022/10/29 02:50:27;;;;;;;;;;;10.70;99.90;;;;;;5069764;28;19920;-69
2022/10/29 02:52:53;;;;;;;;;;;10.60;99.90;;;;;;5050536;28;20370;-69
2022/10/29 02:55:18;;;;;;;;;;;10.60;99.90;;;;;;5104423;27;19927;-69
2022/10/29 02:57:44;;;;;;;;;;;10.60;99.90;;;;;;5065478;28;19928;-69
2022/10/29 03:00:10;;;;;;;;;;;10.60;99.90;;;;;;5062429;28;19939;-69
2022/10/29 03:02:36;;;;;;;;;;;10.60;99.90;;;;;;5068947;28;19928;-69
2022/10/29 03:05:01;;;;;;;;;;;10.60;99.90;;;;;;5095364;27;19920;-69
2022/10/29 03:07:27;;;;;;;;;;;10.60;99.90;;;;;;5051930;28;19948;-69
2022/10/29 03:09:52;;;;;;;;;;;10.60;99.90;;;;;;5064810;28;19920;-69
2022/10/29 03:12:18;;;;;;;;;;;10.60;99.90;;;;;;5069562;28;19921;-69
2022/10/29 03:14:43;;;;;;;;;;;10.40;99.90;;;;;;5067705;28;19935;-69
2022/10/29 03:17:08;;;;;;;;;;;10.50;99.90;;;;;;5063741;28;19924;-69
2022/10/29 03:19:34;;;;;;;;;;;10.50;99.90;;;;;;5064853;28;20290;-69
2022/10/29 03:21:59;;;;;;;;;;;10.50;99.90;;;;;;5070702;28;20378;-70
2022/10/29 03:24:25;;;;;;;;;;;10.50;99.90;;;;;;5061847;28;19935;-69
2022/10/29 03:26:50;;;;;;;;;;;10.50;99.90;;;;;;5064988;28;19928;-69
2022/10/29 03:29:16;;;;;;;;;;;10.40;99.90;;;;;;5071793;28;20286;-69
2022/10/29 03:31:41;;;;;;;;;;;10.40;99.90;;;;;;5068670;28;19925;-69
2022/10/29 03:34:07;;;;;;;;;;;10.40;99.90;;;;;;5100727;27;19974;-69
2022/10/29 03:36:32;;;;;;;;;;;10.40;99.90;;;;;;5069226;28;19924;-69
2022/10/29 03:38:58;;;;;;;;;;;10.40;99.90;;;;;;5058431;28;22324;-70
2022/10/29 03:41:23;;;;;;;;;;;10.40;99.90;;;;;;5086253;28;19978;-69
2022/10/29 03:43:49;;;;;;;;;;;10.40;99.90;;;;;;5071537;28;19920;-69
2022/10/29 03:46:14;;;;;;;;;;;10.40;99.90;;;;;;5067956;28;19920;-69
2022/10/29 03:48:40;;;;;;;;;;;10.40;99.90;;;;;;5066201;28;19924;-69
2022/10/29 03:51:05;;;;;;;;;;;10.40;99.90;;;;;;5052842;28;19990;-69
2022/10/29 03:53:31;;;;;;;;;;;10.40;99.90;;;;;;5068975;28;19978;-69
2022/10/29 03:55:57;;;;;;;;;;;10.50;99.90;;;;;;5068006;28;19925;-69
2022/10/29 03:58:23;;;;;;;;;;;10.50;99.90;;;;;;5088709;28;19932;-69
2022/10/29 04:00:59;;;;;;;;;;;10.50;99.90;;;;;;5069764;28;19927;-69
2022/10/29 04:03:25;;;;;;;;;;;10.50;99.90;;;;;;5062974;28;20061;-69
2022/10/29 04:05:51;;;;;;;;;;;10.40;99.90;;;;;;5068904;28;20014;-69
2022/10/29 04:08:16;;;;;;;;;;;10.40;99.90;;;;;;5071940;28;20476;-69
2022/10/29 04:10:42;;;;;;;;;;;10.50;99.90;;;;;;5064308;28;20391;-70
2022/10/29 04:13:08;;;;;;;;;;;10.40;99.90;;;;;;5068003;28;19979;-69
2022/10/29 04:15:33;;;;;;;;;;;10.40;99.90;;;;;;5044217;28;20025;-70
2022/10/29 04:17:59;;;;;;;;;;;10.40;99.90;;;;;;5067420;28;19924;-69
2022/10/29 04:20:24;;;;;;;;;;;10.40;99.90;;;;;;5067665;28;19942;-70
2022/10/29 04:22:50;;;;;;;;;;;10.50;99.90;;;;;;5103641;27;19929;-70
2022/10/29 04:25:16;;;;;;;;;;;10.50;99.90;;;;;;5101688;27;20405;-70
2022/10/29 04:27:41;;;;;;;;;;;10.50;99.90;;;;;;5057493;28;19924;-70
2022/10/29 04:30:07;;;;;;;;;;;10.50;99.90;;;;;;5060271;28;21744;-70
2022/10/29 04:32:32;;;;;;;;;;;10.50;99.90;;;;;;5065840;28;19935;-70
2022/10/29 04:34:58;;;;;;;;;;;10.50;99.90;;;;;;5066925;28;19929;-70
2022/10/29 04:37:23;;;;;;;;;;;10.50;99.90;;;;;;5068752;28;20278;-70
2022/10/29 04:39:49;;;;;;;;;;;10.60;99.90;;;;;;5066910;28;19970;-70
2022/10/29 04:42:14;;;;;;;;;;;10.60;99.90;;;;;;5054851;28;19924;-70
2022/10/29 04:44:40;;;;;;;;;;;10.50;99.90;;;;;;5063107;28;19989;-70
2022/10/29 04:47:05;;;;;;;;;;;10.60;99.90;;;;;;5067833;28;19931;-70
2022/10/29 04:49:31;;;;;;;;;;;10.60;99.90;;;;;;5066739;28;19924;-70
2022/10/29 04:51:56;;;;;;;;;;;10.60;99.90;;;;;;5065169;28;19928;-70
2022/10/29 04:54:22;;;;;;;;;;;10.50;99.90;;;;;;5072026;28;20022;-70
2022/10/29 04:56:47;;;;;;;;;;;10.60;99.90;;;;;;5068405;28;20199;-70
2022/10/29 04:59:13;;;;;;;;;;;10.60;99.90;;;;;;5072691;28;20011;-70
2022/10/29 05:01:38;;;;;;;;;;;10.60;99.90;;;;;;5094494;27;19951;-70
2022/10/29 05:04:04;;;;;;;;;;;10.60;99.90;;;;;;5077424;28;19967;-70
2022/10/29 05:06:29;;;;;;;;;;;10.60;99.90;;;;;;5063407;28;19935;-70
2022/10/29 05:08:55;;;;;;;;;;;10.70;99.90;;;;;;5077596;28;20286;-70
2022/10/29 05:11:20;;;;;;;;;;;10.70;99.90;;;;;;5072193;28;19930;-70
2022/10/29 05:13:46;;;;;;;;;;;10.70;99.90;;;;;;5084403;28;20435;-70
2022/10/29 05:16:11;;;;;;;;;;;10.70;99.90;;;;;;5078935;28;19930;-70
2022/10/29 05:18:37;;;;;;;;;;;10.70;99.90;;;;;;5070060;28;20286;-70
2022/10/29 05:21:03;;;;;;;;;;;10.70;99.90;;;;;;5081835;28;20010;-70
2022/10/29 05:23:29;;;;;;;;;;;10.70;99.90;;;;;;5053263;28;20011;-70
2022/10/29 05:25:54;;;;;;;;;;;10.80;99.90;;;;;;5059060;28;20772;-70
2022/10/29 05:28:20;;;;;;;;;;;10.80;99.90;;;;;;5064930;28;19920;-70
2022/10/29 05:30:46;;;;;;;;;;;10.90;99.90;;;;;;5068598;28;19928;-71
2022/10/29 05:33:16;;;;;;;;;;;11.00;99.90;;;;;;5060713;28;19921;-70
2022/10/29 05:35:42;;;;;;;;;;;10.90;99.90;;;;;;5068719;28;19971;-70
2022/10/29 05:38:08;;;;;;;;;;;11.00;99.90;;;;;;5055875;28;19925;-70
2022/10/29 05:40:33;;;;;;;;;;;11.00;99.90;;;;;;5072781;28;19920;-70
2022/10/29 05:42:59;;;;;;;;;;;11.00;99.90;;;;;;5043556;28;19970;-70
2022/10/29 05:45:24;;;;;;;;;;;11.00;99.90;;;;;;5066691;28;19926;-70
2022/10/29 05:47:56;;;;;;;;;;;11.10;99.90;;;;;;5063916;28;19929;-71
2022/10/29 05:50:22;;;;;;;;;;;11.00;99.90;;;;;;5097994;27;19967;-71
2022/10/29 05:52:58;;;;;;;;;;;11.00;99.90;;;;;;5051913;28;20042;-71
2022/10/29 05:55:24;;;;;;;;;;;11.10;99.90;;;;;;5072271;28;20350;-70
2022/10/29 05:57:49;;;;;;;;;;;11.10;99.90;;;;;;5056300;28;19955;-71
2022/10/29 06:00:15;;;;;;;;;;;11.20;99.90;;;;;;5076529;28;19977;-70
2022/10/29 06:02:44;;;;;;;;;;;11.10;99.90;;;;;;5079834;28;20063;-70
2022/10/29 06:05:09;;;;;;;;;;;11.20;99.90;;;;;;5065904;28;19934;-70
2022/10/29 06:07:35;;;;;;;;;;;11.20;99.90;;;;;;5077300;28;20397;-71
2022/10/29 06:10:00;;;;;;;;;;;11.20;99.90;;;;;;5073943;28;19920;-71
2022/10/29 06:12:26;;;;;;;;;;;11.20;99.90;;;;;;5077051;28;20393;-70
2022/10/29 06:14:51;;;;;;;;;;;11.20;99.90;;;;;;5070262;28;19924;-70
2022/10/29 06:17:16;;;;;;;;;;;11.30;99.90;;;;;;5069664;28;19924;-70
2022/10/29 06:19:42;;;;;;;;;;;11.30;99.90;;;;;;5071488;28;19924;-70
2022/10/29 06:22:07;;;;;;;;;;;11.30;99.90;;;;;;5059844;28;19925;-70
2022/10/29 06:24:33;;;;;;;;;;;11.20;99.90;;;;;;5069193;28;19931;-71
2022/10/29 06:26:58;;;;;;;;;;;11.30;99.90;;;;;;5070549;28;19920;-70
2022/10/29 06:29:24;;;;;;;;;;;11.30;99.90;;;;;;5069702;28;19921;-70
2022/10/29 06:31:49;;;;;;;;;;;11.30;99.90;;;;;;5070094;28;19920;-71
2022/10/29 06:34:15;;;;;;;;;;;11.30;99.90;;;;;;5056472;28;20372;-70
2022/10/29 06:36:40;;;;;;;;;;;11.30;99.90;;;;;;5091310;28;19927;-71
2022/10/29 06:39:06;;;;;;;;;;;11.30;99.90;;;;;;5059444;28;20956;-71
2022/10/29 06:41:32;;;;;;;;;;;11.30;99.90;;;;;;5069609;28;20023;-71
2022/10/29 06:43:57;;;;;;;;;;;11.30;99.90;;;;;;5078923;28;19932;-71
2022/10/29 06:46:23;;;;;;;;;;;11.40;99.90;;;;;;5050108;28;19921;-71
2022/10/29 06:48:48;;;;;;;;;;;11.50;99.90;;;;;;5050647;28;19968;-71
2022/10/29 06:51:14;;;;;;;;;;;11.40;99.90;;;;;;5050066;28;20386;-70
2022/10/29 06:53:39;;;;;;;;;;;11.40;99.90;;;;;;5048547;28;20010;-70
2022/10/29 06:56:05;;;;;;;;;;;11.50;99.90;;;;;;5097786;28;19921;-71
2022/10/29 06:58:30;;;;;;;;;;;11.60;99.90;;;;;;5072118;28;19931;-71
2022/10/29 07:00:58;;;;;;;;;;;11.60;99.90;;;;;;5077451;28;20378;-71
2022/10/29 07:03:24;;;;;;;;;;;11.60;99.90;;;;;;5070841;28;19964;-71
2022/10/29 07:05:56;;;;;;;;;;;11.60;99.90;;;;;;5104992;27;19921;-71
2022/10/29 07:08:22;;;;;;;;;;;11.70;99.90;;;;;;5075776;28;19924;-71
2022/10/29 07:10:51;;;;;;;;;;;11.80;99.90;;;;;;5106173;27;19920;-71
2022/10/29 07:13:16;;;;;;;;;;;11.70;99.90;;;;;;5072447;28;19952;-71
2022/10/29 07:15:42;;;;;;;;;;;11.80;99.90;;;;;;5104268;27;19920;-71
2022/10/29 07:18:08;;;;;;;;;;;11.80;99.90;;;;;;5075855;28;19924;-71
2022/10/29 07:20:35;;;;;;;;;;;11.80;99.90;;;;;;5056400;28;19923;-71
2022/10/29 07:23:00;;;;;;;;;;;11.90;99.90;;;;;;5072413;28;19928;-71
2022/10/29 07:25:26;;;;;;;;;;;11.90;99.90;;;;;;5068188;28;20435;-71
2022/10/29 07:27:52;;;;;;;;;;;11.90;99.90;;;;;;5066556;28;19920;-71
2022/10/29 07:30:18;;;;;;;;;;;11.90;99.90;;;;;;5067667;28;19955;-71
2022/10/29 07:32:43;;;;;;;;;;;12.00;99.90;;;;;;5075250;28;20343;-71
2022/10/29 07:35:09;;;;;;;;;;;12.00;99.90;;;;;;5061316;28;20015;-71
2022/10/29 07:37:34;;;;;;;;;;;12.10;99.90;;;;;;5060113;28;19928;-71
2022/10/29 07:40:00;;;;;;;;;;;12.10;99.90;;;;;;5075330;28;19947;-71
2022/10/29 07:42:25;;;;;;;;;;;12.10;99.90;;;;;;5101010;27;19928;-71
2022/10/29 07:44:51;;;;;;;;;;;12.20;99.90;;;;;;5056160;28;19951;-72
2022/10/29 07:47:16;;;;;;;;;;;12.20;99.90;;;;;;5077274;28;19935;-72
2022/10/29 07:49:42;;;;;;;;;;;12.30;99.90;;;;;;5074122;28;19920;-72
2022/10/29 07:52:08;;;;;;;;;;;12.30;99.90;;;;;;5070541;28;20012;-72
2022/10/29 07:54:33;;;;;;;;;;;12.40;99.90;;;;;;5074269;28;20370;-72
2022/10/29 07:56:58;;;;;;;;;;;12.50;99.90;;;;;;5076428;28;19998;-72
2022/10/29 07:59:24;;;;;;;;;;;12.50;99.90;;;;;;5067381;28;19928;-72
2022/10/29 08:01:49;;;;;;;;;;;12.60;99.90;;;;;;5079759;28;20410;-72
2022/10/29 08:04:15;;;;;;;;;;;12.70;99.90;;;;;;5074342;28;19928;-72
2022/10/29 08:06:40;;;;;;;;;;;12.70;99.90;;;;;;5073005;28;19930;-72
2022/10/29 08:09:06;;;;;;;;;;;12.80;99.90;;;;;;5072107;28;19931;-72
2022/10/29 08:11:32;;;;;;;;;;;12.90;99.90;;;;;;5066262;28;19967;-72
2022/10/29 08:13:58;;;;;;;;;;;13.00;99.90;;;;;;5055074;28;19985;-72
2022/10/29 08:16:23;;;;;;;;;;;13.10;99.90;;;;;;5071267;28;19994;-72
2022/10/29 08:18:49;;;;;;;;;;;13.10;99.90;;;;;;5075961;28;20283;-72
2022/10/29 08:21:14;;;;;;;;;;;13.30;99.90;;;;;;5064011;28;19921;-72
2022/10/29 08:23:40;;;;;;;;;;;13.30;99.90;;;;;;5081755;28;20262;-72
2022/10/29 08:26:05;;;;;;;;;;;13.40;99.90;;;;;;5060393;28;19932;-72
2022/10/29 08:28:31;;;;;;;;;;;13.50;99.90;;;;;;5098392;28;19947;-72
2022/10/29 08:30:56;;;;;;;;;;;13.60;99.90;;;;;;5068185;28;20046;-72
2022/10/29 08:33:22;;;;;;;;;;;13.50;99.90;;;;;;5061386;28;20298;-71
2022/10/29 08:35:48;;;;;;;;;;;13.70;99.90;;;;;;5046292;28;19925;-72
2022/10/29 08:38:13;;;;;;;;;;;13.70;99.90;;;;;;5061440;28;19925;-72
2022/10/29 08:40:48;;;;;;;;;;;13.80;99.90;;;;;;5099495;28;20459;-72
2022/10/29 08:43:29;;;;;;;;;;;13.90;99.90;;;;;;5087744;28;19925;-72
2022/10/29 08:45:55;;;;;;;;;;;13.90;99.90;;;;;;5061607;28;19924;-72
2022/10/29 08:48:27;;;;;;;;;;;13.90;99.90;;;;;;5100961;28;19921;-72
2022/10/29 08:51:03;;;;;;;;;;;13.90;99.90;;;;;;5064275;28;19966;-72
2022/10/29 08:53:35;;;;;;;;;;;14.10;99.90;;;;;;5049173;28;20314;-72
2022/10/29 08:56:02;;;;;;;;;;;14.10;99.90;;;;;;5062591;28;19928;-72
2022/10/29 08:58:32;;;;;;;;;;;14.30;99.90;;;;;;5068869;28;20374;-72
2022/10/29 09:00:58;;;;;;;;;;;14.30;99.90;;;;;;5065188;28;19920;-71
2022/10/29 09:03:25;;;;;;;;;;;14.40;99.90;;;;;;5092226;28;19924;-71
2022/10/29 09:06:01;;;;;;;;;;;14.50;99.90;;;;;;5071977;28;20342;-71
2022/10/29 09:08:29;;;;;;;;;;;14.70;99.90;;;;;;5104185;28;19929;-71
2022/10/29 09:10:56;;;;;;;;;;;14.70;99.90;;;;;;5071876;28;19920;-71
2022/10/29 09:13:24;;;;;;;;;;;14.70;99.90;;;;;;5057645;28;19921;-71
2022/10/29 09:16:05;;;;;;;;;;;15.00;99.90;;;;;;5068431;28;19924;-71
2022/10/29 09:18:46;;;;;;;;;;;15.00;99.90;;;;;;5035562;28;19928;-71
2022/10/29 09:21:15;;;;;;;;;;;15.20;99.90;;;;;;5067893;28;19921;-72
2022/10/29 09:23:43;;;;;;;;;;;15.40;99.90;;;;;;5092008;28;20007;-71
2022/10/29 09:26:16;;;;;;;;;;;15.50;99.90;;;;;;5071663;28;19928;-71
2022/10/29 09:28:51;;;;;;;;;;;15.40;99.90;;;;;;5071637;28;19921;-71
2022/10/29 09:31:35;;;;;;;;;;;15.50;99.90;;;;;;5070319;28;20367;-71
2022/10/29 09:34:03;;;;;;;;;;;15.60;99.90;;;;;;5066558;28;20335;-71
2022/10/29 09:36:28;;;;;;;;;;;15.80;99.90;;;;;;5063174;28;20370;-71
2022/10/29 09:38:54;;;;;;;;;;;15.80;99.90;;;;;;5072803;28;19932;-71
2022/10/29 09:41:21;;;;;;;;;;;16.00;99.90;;;;;;5065221;28;19925;-71
2022/10/29 09:44:02;;;;;;;;;;;15.90;99.90;;;;;;5052899;28;19929;-71
2022/10/29 09:46:38;;;;;;;;;;;16.00;99.90;;;;;;5067435;28;19943;-71
2022/10/29 09:49:22;;;;;;;;;;;16.00;99.90;;;;;;5075187;28;19962;-71
2022/10/29 09:52:00;;;;;;;;;;;16.10;99.90;;;;;;5069618;28;19924;-71
2022/10/29 09:54:28;;;;;;;;;;;16.20;99.90;;;;;;5081970;28;20309;-71
2022/10/29 09:56:54;;;;;;;;;;;16.20;99.90;;;;;;5062440;28;19994;-71
2022/10/29 09:59:26;;;;;;;;;;;16.20;99.90;;;;;;5071372;28;20286;-71
2022/10/29 10:01:51;;;;;;;;;;;16.30;99.90;;;;;;5064433;28;19921;-72
2022/10/29 10:04:37;;;;;;;;;;;16.40;99.90;;;;;;5064956;28;19920;-71
2022/10/29 10:07:07;;;;;;;;;;;16.40;99.90;;;;;;5050637;28;19990;-71
2022/10/29 10:09:49;;;;;;;;;;;16.50;99.90;;;;;;5056202;28;19956;-71
2022/10/29 10:12:15;;;;;;;;;;;16.60;99.90;;;;;;5061792;28;19925;-71
2022/10/29 10:14:40;;;;;;;;;;;16.70;99.90;;;;;;5079652;28;19975;-71
2022/10/29 10:17:06;;;;;;;;;;;16.80;99.90;;;;;;5067335;28;20007;-71
2022/10/29 10:19:32;;;;;;;;;;;16.90;99.90;;;;;;5055475;28;19925;-71
2022/10/29 10:21:59;;;;;;;;;;;17.00;99.90;;;;;;5055593;28;20295;-71
2022/10/29 10:24:29;;;;;;;;;;;17.10;99.90;;;;;;5050792;28;20012;-71
2022/10/29 10:26:54;;;;;;;;;;;17.10;99.90;;;;;;5050741;28;20379;-72
2022/10/29 10:29:21;;;;;;;;;;;17.00;99.90;;;;;;5090544;28;19931;-71
2022/10/29 10:31:48;;;;;;;;;;;17.10;99.90;;;;;;5102184;28;19954;-71
2022/10/29 10:34:21;;;;;;;;;;;17.10;99.90;;;;;;5062717;28;19921;-71
2022/10/29 10:36:49;;;;;;;;;;;17.20;99.90;;;;;;5065181;28;20009;-71
2022/10/29 10:39:20;;;;;;;;;;;17.40;99.90;;;;;;5069352;28;19963;-71
2022/10/29 10:41:48;;;;;;;;;;;17.50;99.90;;;;;;5065755;28;20373;-71
2022/10/29 10:44:13;;;;;;;;;;;17.40;99.90;;;;;;5064537;28;19931;-71
2022/10/29 10:46:41;;;;;;;;;;;17.50;99.90;;;;;;5067733;28;20173;-71
2022/10/29 10:49:12;;;;;;;;;;;17.40;99.90;;;;;;5093136;27;20287;-71
2022/10/29 10:51:41;;;;;;;;;;;17.40;99.90;;;;;;5067603;28;20020;-71
2022/10/29 10:54:24;;;;;;;;;;;17.50;99.90;;;;;;5058628;28;20439;-71
2022/10/29 10:57:13;;;;;;;;;;;17.50;99.90;;;;;;5050251;28;19921;-71
2022/10/29 10:59:46;;;;;;;;;;;17.40;99.90;;;;;;5049024;28;19925;-71
2022/10/29 11:02:24;;;;;;;;;;;17.60;99.90;;;;;;5063277;28;19924;-71
2022/10/29 11:04:55;;;;;;;;;;;17.60;99.90;;;;;;5088058;28;20342;-71
2022/10/29 11:07:22;;;;;;;;;;;17.60;99.90;;;;;;5079958;28;19967;-71
2022/10/29 11:09:49;;;;;;;;;;;17.70;99.90;;;;;;5058042;28;19925;-71
2022/10/29 11:12:35;;;;;;;;;;;17.80;99.90;;;;;;5066255;28;19965;-71
2022/10/29 11:15:05;;;;;;;;;;;17.80;99.90;;;;;;5069861;28;19928;-71
2022/10/29 11:17:52;;;;;;;;;;;18.00;99.90;;;;;;5056767;28;20330;-71
2022/10/29 11:20:30;;;;;;;;;;;18.00;99.90;;;;;;5091285;28;19937;-71
2022/10/29 11:23:21;;;;;;;;;;;18.20;99.90;;;;;;5086782;28;19997;-71
2022/10/29 11:25:57;;;;;;;;;;;18.10;99.90;;;;;;5070911;28;19935;-71
2022/10/29 11:28:22;;;;;;;;;;;18.10;99.90;;;;;;5066065;28;19970;-71
2022/10/29 11:30:55;;;;;;;;;;;18.20;99.90;;;;;;5065118;28;19928;-71
2022/10/29 11:33:35;;;;;;;;;;;18.30;99.90;;;;;;5083502;28;20015;-70
2022/10/29 11:36:14;;;;;;;;;;;18.40;99.90;;;;;;5083120;28;20022;-71
2022/10/29 11:38:42;;;;;;;;;;;18.40;99.90;;;;;;5049600;28;19960;-71
2022/10/29 11:41:37;;;;;;;;;;;18.50;99.90;;;;;;5057580;28;20355;-71
2022/10/29 11:44:07;;;;;;;;;;;18.40;99.90;;;;;;5046261;28;19921;-71
2022/10/29 11:46:35;;;;;;;;;;;18.40;99.90;;;;;;5069220;28;19921;-71
2022/10/29 11:49:13;;;;;;;;;;;18.50;99.90;;;;;;5057223;28;19928;-71
2022/10/29 11:51:44;;;;;;;;;;;18.40;99.90;;;;;;5082487;28;20105;-69
2022/10/29 11:54:34;;;;;;;;;;;18.60;99.90;;;;;;5060969;28;19923;-70
2022/10/29 11:57:02;;;;;;;;;;;18.60;99.90;;;;;;5098649;28;20353;-71
2022/10/29 11:59:46;;;;;;;;;;;18.80;99.90;;;;;;5057603;28;20019;-70
2022/10/29 12:02:41;;;;;;;;;;;18.80;99.90;;;;;;5060924;28;19924;-71
2022/10/29 12:05:13;;;;;;;;;;;18.90;99.90;;;;;;5072671;28;20336;-71
2022/10/29 12:07:38;;;;;;;;;;;18.90;99.90;;;;;;5064427;28;19921;-71
2022/10/29 12:10:13;;;;;;;;;;;19.00;99.90;;;;;;5069665;28;19929;-71
2022/10/29 12:12:52;;;;;;;;;;;19.10;99.90;;;;;;5066704;28;19921;-70
2022/10/29 12:15:40;;;;;;;;;;;19.20;99.90;;;;;;5056831;28;19966;-71
2022/10/29 12:18:18;;;;;;;;;;;19.10;99.90;;;;;;5050578;28;19921;-71
2022/10/29 12:20:53;;;;;;;;;;;19.20;99.90;;;;;;5052198;28;19924;-71
2022/10/29 12:23:23;;;;;;;;;;;19.10;99.90;;;;;;5055124;28;20321;-70
2022/10/29 12:26:04;;;;;;;;;;;19.10;99.90;;;;;;5055998;28;20363;-71
2022/10/29 12:28:30;;;;;;;;;;;19.10;99.90;;;;;;5053280;28;20003;-71
2022/10/29 12:30:55;;;;;;;;;;;19.20;99.90;;;;;;5068494;28;20035;-71
2022/10/29 12:33:30;;;;;;;;;;;19.20;99.90;;;;;;5055022;28;19921;-71
2022/10/29 12:36:14;;;;;;;;;;;19.10;99.90;;;;;;5052492;28;19929;-71
2022/10/29 12:38:48;;;;;;;;;;;19.20;99.90;;;;;;5069064;28;20010;-71
2022/10/29 12:41:16;;;;;;;;;;;19.30;99.90;;;;;;5078401;28;19920;-71
2022/10/29 12:43:42;;;;;;;;;;;19.40;99.90;;;;;;5106166;27;19925;-71
2022/10/29 12:46:19;;;;;;;;;;;19.40;99.90;;;;;;5066358;28;20359;-70
2022/10/29 12:49:00;;;;;;;;;;;19.40;99.90;;;;;;5055300;28;19921;-71
2022/10/29 12:51:32;;;;;;;;;;;19.50;99.90;;;;;;5065655;28;20330;-71
2022/10/29 12:54:17;;;;;;;;;;;19.40;99.90;;;;;;5056744;28;19921;-71
2022/10/29 12:56:42;;;;;;;;;;;19.40;99.90;;;;;;5085774;28;19928;-71
2022/10/29 12:59:23;;;;;;;;;;;19.50;99.90;;;;;;5085684;28;19925;-71
2022/10/29 13:01:52;;;;;;;;;;;19.40;99.90;;;;;;5095457;28;19921;-71
2022/10/29 13:04:22;;;;;;;;;;;19.30;99.90;;;;;;5052571;28;19935;-70
2022/10/29 13:06:59;;;;;;;;;;;19.20;99.90;;;;;;5068555;28;20163;-71
2022/10/29 13:09:26;;;;;;;;;;;19.20;99.90;;;;;;5057170;28;19920;-71
2022/10/29 13:11:53;;;;;;;;;;;19.10;99.90;;;;;;5052314;28;19924;-70
2022/10/29 13:14:22;;;;;;;;;;;19.00;99.90;;;;;;5057156;28;20370;-70
2022/10/29 13:16:48;;;;;;;;;;;19.00;99.90;;;;;;5081303;28;19981;-70
2022/10/29 13:19:21;;;;;;;;;;;19.00;99.90;;;;;;5074958;28;20374;-70
2022/10/29 13:22:13;;;;;;;;;;;19.00;99.90;;;;;;5066885;28;20028;-70
2022/10/29 13:24:38;;;;;;;;;;;19.00;99.90;;;;;;5059181;28;19920;-70
2022/10/29 13:27:16;;;;;;;;;;;19.00;99.90;;;;;;5103374;27;19935;-70
2022/10/29 13:29:43;;;;;;;;;;;19.10;99.90;;;;;;5072149;28;19925;-70
2022/10/29 13:32:27;;;;;;;;;;;19.10;99.90;;;;;;5071310;28;19928;-70
2022/10/29 13:34:54;;;;;;;;;;;19.20;99.90;;;;;;5091151;28;19943;-70
2022/10/29 13:37:47;;;;;;;;;;;19.10;99.90;;;;;;5064301;28;19924;-70
2022/10/29 13:40:25;;;;;;;;;;;19.20;99.90;;;;;;5064610;28;19928;-70
2022/10/29 13:43:04;;;;;;;;;;;19.20;99.90;;;;;;5064158;28;20019;-71
2022/10/29 13:45:31;;;;;;;;;;;19.20;99.90;;;;;;5052467;28;19943;-70
2022/10/29 13:48:11;;;;;;;;;;;19.20;99.90;;;;;;5084858;28;19925;-70
2022/10/29 13:50:37;;;;;;;;;;;19.20;99.90;;;;;;5052680;28;20128;-70
2022/10/29 13:53:04;;;;;;;;;;;19.20;99.90;;;;;;5064263;28;19920;-70
2022/10/29 13:55:31;;;;;;;;;;;19.20;99.90;;;;;;5084611;28;20190;-71
2022/10/29 13:58:11;;;;;;;;;;;19.20;99.90;;;;;;5038505;28;19921;-71
2022/10/29 14:00:36;;;;;;;;;;;19.30;99.90;;;;;;5071464;28;19928;-71
2022/10/29 14:03:11;;;;;;;;;;;19.30;99.90;;;;;;5050658;28;19927;-71
2022/10/29 14:05:38;;;;;;;;;;;19.40;99.90;;;;;;5064590;28;19951;-70
2022/10/29 14:08:12;;;;;;;;;;;19.40;99.90;;;;;;5067740;28;19929;-71
2022/10/29 14:10:38;;;;;;;;;;;19.40;99.90;;;;;;5074398;28;19973;-71
2022/10/29 14:13:09;;;;;;;;;;;19.40;99.90;;;;;;5076033;28;20583;-70
2022/10/29 14:15:37;;;;;;;;;;;19.40;99.90;;;;;;5069134;28;19920;-70
2022/10/29 14:18:16;;;;;;;;;;;19.40;99.90;;;;;;5064306;28;19983;-71
2022/10/29 14:20:52;;;;;;;;;;;19.20;99.90;;;;;;5068566;28;19935;-70
2022/10/29 14:23:18;;;;;;;;;;;19.20;99.90;;;;;;5065347;28;19963;-71
2022/10/29 14:25:49;;;;;;;;;;;19.20;99.90;;;;;;5064319;28;19956;-71
2022/10/29 14:28:16;;;;;;;;;;;19.10;99.90;;;;;;5072576;28;20015;-70